createdAt,value
2019-05-22T00:02:16.438Z,15.53
2019-05-22T00:07:18.273Z,15.51
2019-05-22T00:12:20.220Z,15.50
2019-05-22T00:17:26.344Z,15.47
2019-05-22T00:22:32.757Z,15.46
2019-05-22T00:27:36.311Z,15.46
2019-05-22T00:32:38.767Z,15.42
2019-05-22T00:37:41.692Z,15.40
2019-05-22T00:42:44.885Z,15.42
2019-05-22T00:47:48.640Z,15.40
2019-05-22T00:53:00.133Z,15.32
2019-05-22T00:58:05.477Z,15.25
2019-05-22T01:03:09.135Z,15.24
2019-05-22T01:08:15.067Z,15.17
2019-05-22T01:13:17.523Z,15.12
2019-05-22T01:18:19.581Z,15.08
2019-05-22T01:23:23.128Z,15.05
2019-05-22T01:28:25.383Z,15.08
2019-05-22T01:33:33.062Z,15.11
2019-05-22T01:38:35.161Z,15.10
2019-05-22T01:43:37.367Z,15.06
2019-05-22T01:48:41.822Z,15.02
2019-05-22T01:53:43.454Z,14.92
2019-05-22T01:58:45.140Z,14.80
2019-05-22T02:03:47.209Z,14.70
2019-05-22T02:08:56.165Z,14.63
2019-05-22T02:14:09.407Z,14.64
2019-05-22T02:19:10.950Z,14.67
2019-05-22T02:24:12.715Z,14.68
2019-05-22T02:29:16.397Z,14.64
2019-05-22T02:34:18.095Z,14.59
2019-05-22T02:39:23.336Z,14.55
2019-05-22T02:44:26.460Z,14.51
2019-05-22T02:49:28.353Z,14.47
2019-05-22T02:54:31.977Z,14.47
2019-05-22T02:59:33.762Z,14.44
2019-05-22T03:05:08.300Z,14.38
2019-05-22T03:10:13.654Z,14.35
2019-05-22T03:15:17.335Z,14.35
2019-05-22T03:20:21.147Z,14.33
2019-05-22T03:25:24.238Z,14.30
2019-05-22T03:30:29.594Z,14.31
2019-05-22T03:35:38.677Z,14.24
2019-05-22T03:40:40.915Z,14.19
2019-05-22T03:45:42.668Z,14.11
2019-05-22T03:50:44.322Z,14.04
2019-05-22T03:55:46.982Z,13.98
2019-05-22T04:00:49.980Z,13.93
2019-05-22T04:05:51.941Z,13.85
2019-05-22T04:10:56.409Z,13.88
2019-05-22T04:16:00.073Z,13.84
2019-05-22T04:21:02.011Z,13.85
2019-05-22T04:26:04.415Z,13.82
2019-05-22T04:31:06.664Z,13.80
2019-05-22T04:36:10.282Z,13.81
2019-05-22T04:41:13.868Z,13.80
2019-05-22T04:46:16.880Z,13.82
2019-05-22T04:51:21.909Z,13.80
2019-05-22T04:56:24.597Z,13.76
2019-05-22T05:01:27.085Z,13.73
2019-05-22T05:06:30.497Z,13.75
2019-05-22T05:11:32.150Z,13.77
2019-05-22T05:16:36.403Z,13.75
2019-05-22T05:21:38.300Z,13.71
2019-05-22T05:26:40.548Z,13.70
2019-05-22T05:31:42.212Z,13.72
2019-05-22T05:36:44.126Z,13.74
2019-05-22T05:41:45.660Z,13.71
2019-05-22T05:46:48.129Z,13.71
2019-05-22T05:51:50.993Z,13.67
2019-05-22T05:56:52.930Z,13.65
2019-05-22T06:01:55.387Z,13.68
2019-05-22T06:07:17.576Z,13.64
2019-05-22T06:12:19.234Z,13.65
2019-05-22T06:18:13.593Z,13.62
2019-05-22T06:23:57.570Z,13.66
2019-05-22T06:28:59.628Z,13.68
2019-05-22T06:34:01.209Z,13.68
2019-05-22T06:39:15.530Z,13.67
2019-05-22T06:44:27.759Z,13.66
2019-05-22T06:49:38.358Z,13.68
2019-05-22T06:54:40.252Z,13.66
2019-05-22T06:59:44.185Z,13.60
2019-05-22T07:04:46.480Z,13.56
2019-05-22T07:09:49.077Z,13.54
2019-05-22T07:16:04.353Z,13.51
2019-05-22T07:21:07.436Z,13.45
2019-05-22T07:26:09.913Z,13.34
2019-05-22T07:31:11.958Z,13.33
2019-05-22T07:36:17.017Z,13.38
2019-05-22T07:41:18.054Z,13.44
2019-05-22T07:46:20.083Z,13.53
2019-05-22T07:51:22.154Z,13.84
2019-05-22T07:56:24.408Z,13.94
2019-05-22T08:01:26.198Z,13.97
2019-05-22T08:06:27.964Z,14.07
2019-05-22T08:11:29.602Z,14.28
2019-05-22T08:16:31.449Z,14.17
2019-05-22T08:21:33.304Z,14.17
2019-05-22T08:26:51.642Z,14.08
2019-05-22T08:31:38.630Z,13.95
2019-05-22T08:36:40.221Z,13.86
2019-05-22T08:41:42.008Z,13.91
2019-05-22T08:46:44.137Z,13.85
2019-05-22T08:51:46.376Z,13.89
2019-05-22T08:56:48.880Z,13.87
2019-05-22T09:01:51.640Z,13.95
2019-05-22T09:06:53.321Z,14.06
2019-05-22T09:11:55.399Z,13.89
2019-05-22T09:16:56.993Z,13.92
2019-05-22T09:21:59.041Z,13.91
2019-05-22T09:27:02.834Z,13.94
2019-05-22T09:32:05.239Z,14.05
2019-05-22T09:37:08.177Z,14.02
2019-05-22T09:42:09.869Z,14.00
2019-05-22T09:47:11.570Z,13.98
2019-05-22T09:52:13.241Z,13.90
2019-05-22T09:57:15.365Z,14.10
2019-05-22T10:02:16.914Z,14.21
2019-05-22T10:07:18.597Z,14.08
2019-05-22T10:12:20.382Z,14.10
2019-05-22T10:17:22.635Z,14.05
2019-05-22T10:22:28.962Z,14.07
2019-05-22T10:27:30.834Z,14.11
2019-05-22T10:32:32.714Z,14.19
2019-05-22T10:37:34.474Z,14.39
2019-05-22T10:42:36.165Z,14.42
2019-05-22T10:47:38.274Z,14.02
2019-05-22T10:52:39.824Z,13.84
2019-05-22T10:57:43.025Z,14.03
2019-05-22T11:02:45.702Z,14.48
2019-05-22T11:07:47.754Z,14.30
2019-05-22T11:12:49.846Z,14.11
2019-05-22T11:17:51.558Z,13.95
2019-05-22T11:22:53.472Z,14.15
2019-05-22T11:27:55.130Z,14.21
2019-05-22T11:32:57.095Z,14.04
2019-05-22T11:37:59.081Z,14.07
2019-05-22T11:43:00.975Z,14.21
2019-05-22T11:48:03.800Z,14.41
2019-05-22T11:53:05.897Z,14.75
2019-05-22T11:58:07.748Z,14.59
2019-05-22T12:03:09.622Z,14.42
2019-05-22T12:08:12.197Z,14.32
2019-05-22T12:13:13.871Z,14.31
2019-05-22T12:18:15.548Z,14.19
2019-05-22T12:23:17.235Z,14.02
2019-05-22T12:28:19.105Z,14.10
2019-05-22T12:33:21.608Z,14.01
2019-05-22T12:38:26.697Z,14.03
2019-05-22T12:43:29.365Z,13.97
2019-05-22T12:48:31.242Z,13.97
2019-05-22T12:53:33.592Z,14.12
2019-05-22T12:58:36.012Z,14.17
2019-05-22T13:03:38.122Z,13.99
2019-05-22T13:08:40.366Z,13.96
2019-05-22T13:13:42.720Z,13.88
2019-05-22T13:18:44.427Z,13.87
2019-05-22T13:23:47.736Z,13.83
2019-05-22T13:28:49.328Z,13.75
2019-05-22T13:33:52.296Z,13.77
2019-05-22T13:38:54.387Z,13.64
2019-05-22T13:43:56.710Z,13.57
2019-05-22T13:48:58.361Z,13.61
2019-05-22T13:53:59.901Z,13.76
2019-05-22T13:59:02.170Z,13.62
2019-05-22T14:04:03.875Z,13.58
2019-05-22T14:09:09.066Z,13.49
2019-05-22T14:14:11.331Z,13.41
2019-05-22T14:19:12.879Z,13.41
2019-05-22T14:24:14.531Z,13.63
2019-05-22T14:29:16.276Z,13.75
2019-05-22T14:34:17.901Z,13.53
2019-05-22T14:39:20.532Z,13.43
2019-05-22T14:44:22.184Z,13.43
2019-05-22T14:49:23.856Z,13.52
2019-05-22T14:54:25.512Z,13.46
2019-05-22T14:59:27.395Z,13.43
2019-05-22T15:04:29.542Z,13.43
2019-05-22T15:09:31.389Z,13.36
2019-05-22T15:14:33.032Z,13.32
2019-05-22T15:19:35.318Z,13.42
2019-05-22T15:24:37.443Z,13.55
2019-05-22T15:29:39.528Z,13.45
2019-05-22T15:34:41.180Z,13.42
2019-05-22T15:39:42.734Z,13.38
2019-05-22T15:44:44.904Z,13.36
2019-05-22T15:49:47.114Z,13.18
2019-05-22T15:54:49.765Z,13.19
2019-05-22T15:59:51.888Z,13.30
2019-05-22T16:04:53.643Z,13.39
2019-05-22T16:09:55.890Z,13.46
2019-05-22T16:14:59.400Z,13.56
2019-05-22T16:20:01.566Z,13.86
2019-05-22T16:25:03.908Z,13.95
2019-05-22T16:30:06.796Z,13.84
2019-05-22T16:35:09.577Z,13.76
2019-05-22T16:40:12.203Z,13.96
2019-05-22T16:45:14.262Z,14.15
2019-05-22T16:50:16.106Z,14.22
2019-05-22T16:55:19.779Z,14.09
2019-05-22T17:00:21.630Z,14.08
2019-05-22T17:05:23.806Z,14.22
2019-05-22T17:10:26.058Z,14.71
2019-05-22T17:15:28.113Z,14.72
2019-05-22T17:20:29.796Z,14.52
2019-05-22T17:25:32.317Z,14.29
2019-05-22T17:30:34.396Z,14.20
2019-05-22T17:35:36.857Z,13.87
2019-05-22T17:40:39.081Z,13.80
2019-05-22T17:45:42.097Z,13.78
2019-05-22T17:50:44.353Z,13.71
2019-05-22T17:55:46.870Z,13.62
2019-05-22T18:00:49.001Z,13.58
2019-05-22T18:05:51.262Z,13.55
2019-05-22T18:10:53.115Z,13.53
2019-05-22T18:15:54.689Z,13.52
2019-05-22T18:20:56.343Z,13.52
2019-05-22T18:25:57.918Z,13.51
2019-05-22T18:30:59.683Z,13.50
2019-05-22T18:36:01.283Z,14.00
2019-05-22T18:41:03.069Z,14.21
2019-05-22T18:46:05.144Z,14.25
2019-05-22T18:51:07.855Z,14.15
2019-05-22T18:56:10.894Z,13.82
2019-05-22T19:01:16.189Z,13.66
2019-05-22T19:06:29.389Z,13.49
2019-05-22T19:11:20.363Z,13.39
2019-05-22T19:16:22.826Z,13.35
2019-05-22T19:21:24.370Z,13.28
2019-05-22T19:26:27.032Z,13.24
2019-05-22T19:31:28.776Z,13.20
2019-05-22T19:36:30.431Z,13.20
2019-05-22T19:41:32.124Z,13.18
2019-05-22T19:46:33.779Z,13.17
2019-05-22T19:51:36.644Z,13.15
2019-05-22T19:56:38.840Z,13.15
2019-05-22T20:01:40.922Z,13.13
2019-05-22T20:06:42.783Z,13.12
2019-05-22T20:11:44.944Z,13.13
2019-05-22T20:16:46.908Z,13.12
2019-05-22T20:21:49.694Z,13.10
2019-05-22T20:26:51.356Z,13.08
2019-05-22T20:31:53.125Z,13.05
2019-05-22T20:36:55.892Z,13.01
2019-05-22T20:41:57.485Z,13.00
2019-05-22T20:46:59.490Z,12.97
2019-05-22T20:52:01.086Z,12.93
2019-05-22T20:57:04.701Z,12.91
2019-05-22T21:02:08.281Z,12.91
2019-05-22T21:07:10.671Z,12.91
2019-05-22T21:12:12.749Z,12.90
2019-05-22T21:17:15.159Z,12.89
2019-05-22T21:22:20.364Z,12.87
2019-05-22T21:27:22.028Z,12.85
2019-05-22T21:32:24.233Z,12.85
2019-05-22T21:37:25.893Z,12.81
2019-05-22T21:42:28.277Z,12.79
2019-05-22T21:47:30.067Z,12.76
2019-05-22T21:52:32.321Z,12.66
2019-05-22T21:57:35.061Z,12.61
2019-05-22T22:02:41.690Z,12.58
2019-05-22T22:07:43.449Z,12.51
2019-05-22T22:12:47.458Z,12.50
2019-05-22T22:17:51.500Z,12.45
2019-05-22T22:22:53.692Z,12.39
2019-05-22T22:27:55.362Z,12.30
2019-05-22T22:32:58.043Z,12.22
2019-05-22T22:38:00.004Z,12.14
2019-05-22T22:43:02.837Z,12.08
2019-05-22T22:48:05.559Z,12.01
2019-05-22T22:53:07.317Z,11.96
2019-05-22T22:58:17.041Z,11.91
2019-05-22T23:03:18.862Z,11.88
2019-05-22T23:08:24.116Z,11.81
2019-05-22T23:13:27.289Z,11.81
2019-05-22T23:18:51.997Z,11.80
2019-05-22T23:23:52.883Z,11.79
2019-05-22T23:28:54.875Z,11.77
2019-05-22T23:33:56.413Z,11.75
2019-05-22T23:39:00.602Z,11.74
2019-05-22T23:44:02.412Z,11.70
2019-05-22T23:49:04.040Z,11.68
2019-05-22T23:54:05.619Z,11.67
2019-05-22T23:59:07.571Z,11.63
